Time,TemperatureF,DewpointF,PressureIn,WindDirection,WindDirectionDegrees,WindSpeedMPH,WindSpeedGustMPH,Humidity,HourlyPrecipIn,Conditions,Clouds,dailyrainin,SolarRadiationWatts/m^2,SoftwareType,DateUTC
2013-05-20 00:01:00,52.8,52.2,30.19,SE,132,3.0,5.0,98,0.12,,---,0.27,0.00,VWS V14.01,2013-05-20 04:01:00,
2013-05-20 00:06:00,53.0,52.5,30.19,SE,143,0.0,0.0,98,0.08,,---,0.00,0.00,VWS V14.01,2013-05-20 04:06:00,
2013-05-20 00:11:00,52.8,52.2,30.18,ESE,119,1.0,5.0,98,0.09,,---,0.01,0.00,VWS V14.01,2013-05-20 04:11:00,
2013-05-20 00:16:00,52.8,52.2,30.18,SE,141,0.0,6.0,98,0.10,,---,0.02,0.00,VWS V14.01,2013-05-20 04:16:00,
2013-05-20 00:21:00,52.8,52.2,30.18,East,95,0.0,4.0,98,0.08,,---,0.03,0.00,VWS V14.01,2013-05-20 04:21:00,
2013-05-20 00:26:00,52.8,52.2,30.17,South,172,0.0,5.0,98,0.08,,---,0.03,0.00,VWS V14.01,2013-05-20 04:26:00,
2013-05-20 00:31:00,52.8,52.2,30.17,ESE,103,3.0,5.0,98,0.09,,---,0.04,0.00,VWS V14.01,2013-05-20 04:31:00,
2013-05-20 00:36:00,52.8,52.2,30.16,East,93,0.0,4.0,98,0.07,,---,0.04,0.00,VWS V14.01,2013-05-20 04:36:00,
2013-05-20 00:41:00,52.8,52.2,30.17,ESE,103,0.0,4.0,98,0.08,,---,0.05,0.00,VWS V14.01,2013-05-20 04:41:00,
2013-05-20 00:46:00,52.8,52.2,30.17,ESE,118,2.0,4.0,98,0.09,,---,0.06,0.00,VWS V14.01,2013-05-20 04:46:00,
2013-05-20 00:51:00,52.7,52.2,30.16,ESE,119,0.0,3.0,98,0.07,,---,0.06,0.00,VWS V14.01,2013-05-20 04:51:00,
2013-05-20 00:56:00,52.7,52.2,30.16,SSE,163,0.0,6.0,98,0.07,,---,0.06,0.00,VWS V14.01,2013-05-20 04:56:00,
2013-05-20 01:01:00,52.7,52.2,30.16,SSE,153,0.0,6.0,98,0.07,,---,0.06,0.00,VWS V14.01,2013-05-20 05:01:00,
2013-05-20 01:06:00,52.8,52.2,30.16,ESE,107,2.0,4.0,98,0.07,,---,0.07,0.00,VWS V14.01,2013-05-20 05:06:00,
2013-05-20 01:11:00,52.7,52.2,30.16,SSE,150,0.0,4.0,98,0.07,,---,0.07,0.00,VWS V14.01,2013-05-20 05:11:00,
2013-05-20 01:16:00,52.7,52.2,30.15,SSE,151,0.0,4.0,98,0.07,,---,0.07,0.00,VWS V14.01,2013-05-20 05:16:00,
2013-05-20 01:21:00,52.7,52.2,30.15,SE,138,0.0,5.0,98,0.05,,---,0.07,0.00,VWS V14.01,2013-05-20 05:21:00,
2013-05-20 01:26:00,52.7,52.2,30.15,SE,135,0.0,5.0,98,0.06,,---,0.08,0.00,VWS V14.01,2013-05-20 05:26:00,
2013-05-20 01:31:00,52.7,52.2,30.14,SE,143,1.0,5.0,98,0.06,,---,0.08,0.00,VWS V14.01,2013-05-20 05:31:00,
2013-05-20 01:36:00,52.7,52.2,30.14,SW,229,0.0,3.0,98,0.04,,---,0.08,0.00,VWS V14.01,2013-05-20 05:36:00,
2013-05-20 01:41:00,52.7,52.2,30.14,SSE,156,0.0,4.0,98,0.04,,---,0.08,0.00,VWS V14.01,2013-05-20 05:41:00,
2013-05-20 01:46:00,52.7,52.2,30.14,SSE,153,0.0,4.0,98,0.04,,---,0.08,0.00,VWS V14.01,2013-05-20 05:46:00,
2013-05-20 01:51:00,52.7,52.2,30.14,South,169,5.0,5.0,98,0.03,,---,0.09,0.00,VWS V14.01,2013-05-20 05:51:00,
2013-05-20 01:56:00,52.7,52.2,30.14,South,169,5.0,5.0,98,0.03,,---,0.09,0.00,VWS V14.01,2013-05-20 05:56:00,
2013-05-20 02:01:00,52.7,52.2,30.13,South,169,5.0,5.0,98,0.03,,---,0.09,0.00,VWS V14.01,2013-05-20 06:01:00,
2013-05-20 02:06:00,52.7,52.2,30.13,South,169,5.0,5.0,98,0.03,,---,0.09,0.00,VWS V14.01,2013-05-20 06:06:00,
2013-05-20 02:11:00,52.7,52.2,30.12,South,169,5.0,5.0,98,0.03,,---,0.09,0.00,VWS V14.01,2013-05-20 06:11:00,
2013-05-20 02:16:00,52.7,52.2,30.12,South,169,5.0,5.0,98,0.03,,---,0.09,0.00,VWS V14.01,2013-05-20 06:16:00,
2013-05-20 02:21:00,52.7,52.2,30.11,South,169,5.0,5.0,98,0.02,,---,0.09,0.00,VWS V14.01,2013-05-20 06:21:00,
2013-05-20 02:26:00,52.5,52.0,30.11,South,169,5.0,5.0,98,0.02,,---,0.09,0.00,VWS V14.01,2013-05-20 06:26:00,
2013-05-20 02:31:00,52.5,52.0,30.11,South,169,5.0,5.0,98,0.02,,---,0.09,0.00,VWS V14.01,2013-05-20 06:31:00,
2013-05-20 02:36:00,52.5,52.0,30.11,South,169,5.0,5.0,98,0.01,,---,0.09,0.00,VWS V14.01,2013-05-20 06:36:00,
2013-05-20 02:41:00,52.5,52.0,30.10,South,169,5.0,5.0,98,0.02,,---,0.10,0.00,VWS V14.01,2013-05-20 06:41:00,
2013-05-20 02:46:00,52.5,52.0,30.10,South,169,5.0,5.0,98,0.02,,---,0.10,0.00,VWS V14.01,2013-05-20 06:46:00,
2013-05-20 02:51:00,52.5,52.0,30.10,South,169,5.0,5.0,98,0.02,,---,0.10,0.00,VWS V14.01,2013-05-20 06:51:00,
2013-05-20 02:56:00,52.5,52.0,30.10,South,169,5.0,5.0,98,0.02,,---,0.10,0.00,VWS V14.01,2013-05-20 06:56:00,
2013-05-20 03:01:00,52.5,52.0,30.10,South,169,5.0,5.0,98,0.02,,---,0.10,0.00,VWS V14.01,2013-05-20 07:01:00,
2013-05-20 03:06:00,52.5,52.0,30.09,South,169,5.0,5.0,98,0.01,,---,0.10,0.00,VWS V14.01,2013-05-20 07:06:00,
2013-05-20 03:11:00,52.5,52.0,30.09,South,169,5.0,5.0,98,0.01,,---,0.10,0.00,VWS V14.01,2013-05-20 07:11:00,
2013-05-20 03:16:00,52.5,52.0,30.09,South,169,5.0,5.0,98,0.01,,---,0.10,0.00,VWS V14.01,2013-05-20 07:16:00,
2013-05-20 03:21:00,52.5,52.0,30.09,South,169,5.0,5.0,98,0.01,,---,0.10,0.00,VWS V14.01,2013-05-20 07:21:00,
2013-05-20 03:26:00,52.5,52.2,30.09,South,169,5.0,5.0,99,0.01,,---,0.10,0.00,VWS V14.01,2013-05-20 07:26:00,
2013-05-20 03:31:00,52.5,52.2,30.09,South,169,5.0,5.0,99,0.01,,---,0.10,0.00,VWS V14.01,2013-05-20 07:31:00,
2013-05-20 03:36:00,52.5,52.2,30.09,South,169,5.0,5.0,99,0.01,,---,0.10,0.00,VWS V14.01,2013-05-20 07:36:00,
2013-05-20 03:41:00,52.5,52.2,30.09,South,169,5.0,5.0,99,0.01,,---,0.10,0.00,VWS V14.01,2013-05-20 07:41:00,
2013-05-20 03:46:00,52.5,52.2,30.08,South,169,5.0,5.0,99,0.00,,---,0.10,0.00,VWS V14.01,2013-05-20 07:46:00,
2013-05-20 03:52:00,52.5,52.2,30.08,South,169,5.0,5.0,99,0.00,,---,0.10,0.00,VWS V14.01,2013-05-20 07:52:00,
2013-05-20 03:57:00,52.5,52.2,30.08,South,169,5.0,5.0,99,0.00,,---,0.10,0.00,VWS V14.01,2013-05-20 07:57:00,
2013-05-20 04:02:00,52.5,52.2,30.07,South,169,5.0,5.0,99,0.00,,---,0.10,0.00,VWS V14.01,2013-05-20 08:02:00,
2013-05-20 04:07:00,52.5,52.2,30.07,South,169,5.0,5.0,99,0.00,,---,0.10,0.00,VWS V14.01,2013-05-20 08:07:00,
2013-05-20 04:12:00,52.7,52.4,30.07,South,169,5.0,5.0,99,0.00,,---,0.10,0.00,VWS V14.01,2013-05-20 08:12:00,
2013-05-20 04:17:00,52.7,52.4,30.07,South,169,5.0,5.0,99,0.00,,---,0.10,0.00,VWS V14.01,2013-05-20 08:17:00,
2013-05-20 04:22:00,52.7,52.4,30.06,South,169,5.0,5.0,99,0.00,,---,0.10,0.00,VWS V14.01,2013-05-20 08:22:00,
2013-05-20 04:27:00,52.7,52.4,30.06,South,169,5.0,5.0,99,0.00,,---,0.10,0.00,VWS V14.01,2013-05-20 08:27:00,
2013-05-20 04:32:00,52.7,52.4,30.06,South,169,5.0,5.0,99,0.00,,---,0.10,0.00,VWS V14.01,2013-05-20 08:32:00,
2013-05-20 04:37:00,52.5,52.2,30.06,South,169,5.0,5.0,99,0.00,,---,0.10,0.00,VWS V14.01,2013-05-20 08:37:00,
2013-05-20 04:42:00,52.5,52.2,30.06,South,169,5.0,5.0,99,0.00,,---,0.10,0.00,VWS V14.01,2013-05-20 08:42:00,
2013-05-20 04:47:00,52.5,52.2,30.05,South,169,5.0,5.0,99,0.00,,---,0.10,0.00,VWS V14.01,2013-05-20 08:47:00,
2013-05-20 04:52:00,52.5,52.2,30.05,South,169,5.0,5.0,99,0.00,,---,0.10,0.00,VWS V14.01,2013-05-20 08:52:00,
2013-05-20 04:57:00,52.5,52.2,30.05,South,169,5.0,5.0,99,0.00,,---,0.10,0.00,VWS V14.01,2013-05-20 08:57:00,
2013-05-20 05:02:00,52.5,52.2,30.05,South,169,5.0,5.0,99,0.00,,---,0.10,0.00,VWS V14.01,2013-05-20 09:02:00,
2013-05-20 05:07:00,52.5,52.2,30.05,South,169,5.0,5.0,99,0.00,,---,0.10,0.00,VWS V14.01,2013-05-20 09:07:00,
2013-05-20 05:12:00,52.7,52.4,30.04,South,169,5.0,5.0,99,0.00,,---,0.10,0.00,VWS V14.01,2013-05-20 09:12:00,
2013-05-20 05:17:00,52.7,52.4,30.04,South,169,5.0,5.0,99,0.00,,---,0.10,0.00,VWS V14.01,2013-05-20 09:17:00,
2013-05-20 05:22:00,52.7,52.4,30.03,South,169,5.0,5.0,99,0.00,,---,0.10,0.00,VWS V14.01,2013-05-20 09:22:00,
2013-05-20 05:27:00,52.8,52.5,30.03,South,169,5.0,5.0,99,0.00,,---,0.10,0.00,VWS V14.01,2013-05-20 09:27:00,
2013-05-20 05:32:00,52.8,52.5,30.03,South,169,5.0,5.0,99,0.00,,---,0.10,0.00,VWS V14.01,2013-05-20 09:32:00,
2013-05-20 05:37:00,52.7,52.4,30.03,South,169,5.0,5.0,99,0.00,,---,0.10,0.00,VWS V14.01,2013-05-20 09:37:00,
2013-05-20 05:42:00,52.8,52.5,30.03,South,169,5.0,5.0,99,0.00,,---,0.10,7.00,VWS V14.01,2013-05-20 09:42:00,
2013-05-20 05:47:00,52.8,52.5,30.03,South,169,5.0,5.0,99,0.00,,---,0.10,7.00,VWS V14.01,2013-05-20 09:47:00,
2013-05-20 06:06:00,53.0,52.7,30.03,North,32767,-999.0,0.0,99,0.00,,,0.10,9,Wunderground v.1.15,2013-05-20 10:06:00,
2013-05-20 06:15:00,53.1,52.8,30.03,North,32767,-999.0,0.0,99,0.00,,,0.10,14,Wunderground v.1.15,2013-05-20 10:15:00,
2013-05-20 06:25:00,53.2,53.2,30.03,North,32767,-999.0,0.0,100,0.00,,,0.11,16,Wunderground v.1.15,2013-05-20 10:25:00,
2013-05-20 06:30:00,53.4,53.4,30.03,North,32767,-999.0,0.0,100,0.00,,,0.11,16,Wunderground v.1.15,2013-05-20 10:30:00,
2013-05-20 06:36:00,53.4,53.1,30.03,North,0,0.0,0.0,99,0.00,,---,0.11,21.00,VWS V14.01,2013-05-20 10:36:00,
2013-05-20 06:41:00,53.4,53.1,30.03,North,0,0.0,0.0,99,0.01,,---,0.11,33.00,VWS V14.01,2013-05-20 10:41:00,
2013-05-20 06:46:00,53.8,53.8,30.03,North,0,0.0,0.0,100,0.01,,---,0.11,42.00,VWS V14.01,2013-05-20 10:46:00,
2013-05-20 06:51:00,53.8,53.8,30.02,North,0,0.0,0.0,100,0.01,,---,0.11,49.00,VWS V14.01,2013-05-20 10:51:00,
2013-05-20 06:56:00,54.0,54.0,30.02,North,0,0.0,0.0,100,0.01,,---,0.11,49.00,VWS V14.01,2013-05-20 10:56:00,
2013-05-20 07:01:00,54.0,54.0,30.03,North,0,0.0,0.0,100,0.01,,---,0.11,65.00,VWS V14.01,2013-05-20 11:01:00,
2013-05-20 07:06:00,54.1,54.1,30.03,North,0,0.0,0.0,100,0.01,,---,0.11,60.00,VWS V14.01,2013-05-20 11:06:00,
2013-05-20 07:11:00,54.3,54.3,30.02,North,0,0.0,0.0,100,0.01,,---,0.11,77.00,VWS V14.01,2013-05-20 11:11:00,
2013-05-20 07:16:00,54.4,54.4,30.02,North,0,0.0,0.0,100,0.01,,---,0.11,86.00,VWS V14.01,2013-05-20 11:16:00,
2013-05-20 07:21:00,54.6,54.6,30.02,North,0,0.0,0.0,100,0.01,,---,0.11,109.00,VWS V14.01,2013-05-20 11:21:00,
2013-05-20 07:26:00,54.6,54.6,30.02,North,0,0.0,0.0,100,0.01,,---,0.11,102.00,VWS V14.01,2013-05-20 11:26:00,
2013-05-20 07:31:00,54.9,54.9,30.02,North,0,0.0,0.0,100,0.00,,---,0.11,118.00,VWS V14.01,2013-05-20 11:31:00,
2013-05-20 07:36:00,55.3,55.3,30.02,North,0,0.0,0.0,100,0.00,,---,0.11,116.00,VWS V14.01,2013-05-20 11:36:00,
2013-05-20 07:41:00,55.5,55.5,30.02,North,0,0.0,0.0,100,0.00,,---,0.11,125.00,VWS V14.01,2013-05-20 11:41:00,
2013-05-20 07:46:00,55.2,55.2,30.02,North,0,0.0,0.0,100,0.00,,---,0.11,123.00,VWS V14.01,2013-05-20 11:46:00,
2013-05-20 07:51:00,55.3,55.3,30.03,North,0,0.0,0.0,100,0.00,,---,0.11,100.00,VWS V14.01,2013-05-20 11:51:00,
2013-05-20 07:56:00,55.5,55.5,30.02,North,0,0.0,0.0,100,0.00,,---,0.11,113.00,VWS V14.01,2013-05-20 11:56:00,
2013-05-20 08:01:00,55.6,55.6,30.02,NE,51,0.0,0.0,100,0.00,,---,0.11,141.00,VWS V14.01,2013-05-20 12:01:00,
2013-05-20 08:06:00,55.8,55.8,30.02,NE,51,0.0,0.0,100,0.00,,---,0.11,121.00,VWS V14.01,2013-05-20 12:06:00,
2013-05-20 08:11:00,55.8,55.8,30.02,NE,51,0.0,0.0,100,0.00,,---,0.11,141.00,VWS V14.01,2013-05-20 12:11:00,
2013-05-20 08:16:00,56.2,56.2,30.03,NE,51,0.0,0.0,100,0.00,,---,0.11,162.00,VWS V14.01,2013-05-20 12:16:00,
2013-05-20 08:21:00,56.2,56.2,30.03,NE,51,0.0,0.0,100,0.00,,---,0.11,171.00,VWS V14.01,2013-05-20 12:21:00,
2013-05-20 08:26:00,56.5,56.5,30.02,NE,51,0.0,0.0,100,0.00,,---,0.11,232.00,VWS V14.01,2013-05-20 12:26:00,
2013-05-20 08:31:00,56.6,56.6,30.02,ENE,63,0.0,0.0,100,0.00,,---,0.11,250.00,VWS V14.01,2013-05-20 12:31:00,
2013-05-20 08:36:00,57.2,57.2,30.02,ENE,63,0.0,0.0,100,0.00,,---,0.11,190.00,VWS V14.01,2013-05-20 12:36:00,
2013-05-20 08:41:00,57.5,57.5,30.02,ENE,63,0.0,0.0,100,0.00,,---,0.11,239.00,VWS V14.01,2013-05-20 12:41:00,
2013-05-20 08:46:00,57.7,57.7,30.02,ENE,63,0.0,0.0,100,0.00,,---,0.11,160.00,VWS V14.01,2013-05-20 12:46:00,
2013-05-20 08:51:00,58.0,58.0,30.02,ENE,63,0.0,0.0,100,0.00,,---,0.11,281.00,VWS V14.01,2013-05-20 12:51:00,
2013-05-20 08:56:00,58.3,58.3,30.02,ENE,63,0.0,0.0,100,0.00,,---,0.11,304.00,VWS V14.01,2013-05-20 12:56:00,
2013-05-20 09:01:00,58.8,58.8,30.02,ENE,63,0.0,0.0,100,0.00,,---,0.11,401.00,VWS V14.01,2013-05-20 13:01:00,
2013-05-20 09:06:00,59.1,59.1,30.01,ENE,63,0.0,0.0,100,0.00,,---,0.11,461.00,VWS V14.01,2013-05-20 13:06:00,
2013-05-20 09:11:00,59.1,58.8,30.01,ENE,63,0.0,0.0,99,0.00,,---,0.11,283.00,VWS V14.01,2013-05-20 13:11:00,
2013-05-20 09:16:00,59.5,59.2,30.02,ENE,63,0.0,0.0,99,0.00,,---,0.11,348.00,VWS V14.01,2013-05-20 13:16:00,
2013-05-20 09:21:00,59.5,59.2,30.01,NE,53,0.0,0.0,99,0.00,,---,0.11,330.00,VWS V14.01,2013-05-20 13:21:00,
2013-05-20 09:26:00,60.0,59.7,30.02,NE,53,0.0,0.0,99,0.00,,---,0.11,359.00,VWS V14.01,2013-05-20 13:26:00,
2013-05-20 09:31:00,60.3,59.7,30.02,NE,53,0.0,0.0,98,0.00,,---,0.11,341.00,VWS V14.01,2013-05-20 13:31:00,
2013-05-20 09:36:00,60.8,60.2,30.01,NE,53,0.0,0.0,98,0.00,,---,0.11,459.00,VWS V14.01,2013-05-20 13:36:00,
2013-05-20 09:41:00,61.1,60.0,30.01,NE,53,0.0,0.0,96,0.00,,---,0.11,492.00,VWS V14.01,2013-05-20 13:41:00,
2013-05-20 09:46:00,61.5,60.1,30.01,NE,53,0.0,1.0,95,0.00,,---,0.11,373.00,VWS V14.01,2013-05-20 13:46:00,
2013-05-20 09:51:00,61.7,60.0,30.01,NE,52,0.0,0.0,94,0.00,,---,0.11,469.00,VWS V14.01,2013-05-20 13:51:00,
2013-05-20 09:56:00,61.9,60.2,30.01,NE,52,0.0,0.0,94,0.00,,---,0.11,381.00,VWS V14.01,2013-05-20 13:56:00,
2013-05-20 10:01:00,62.3,60.2,30.01,East,90,0.0,0.0,93,0.00,,---,0.11,385.00,VWS V14.01,2013-05-20 14:01:00,
2013-05-20 10:06:00,62.6,60.5,30.01,NE,47,0.0,0.0,93,0.00,,---,0.11,283.00,VWS V14.01,2013-05-20 14:06:00,
2013-05-20 10:11:00,62.5,60.2,30.01,ENE,57,0.0,0.0,92,0.00,,---,0.11,408.00,VWS V14.01,2013-05-20 14:11:00,
2013-05-20 10:16:00,62.6,60.8,30.01,NE,54,0.0,0.0,94,0.00,,---,0.11,450.00,VWS V14.01,2013-05-20 14:16:00,
2013-05-20 10:21:00,63.1,61.0,30.00,NE,55,0.0,0.0,93,0.00,,---,0.11,701.00,VWS V14.01,2013-05-20 14:21:00,
2013-05-20 10:26:00,64.2,61.2,30.00,NW,313,0.0,1.0,90,0.00,,---,0.11,733.00,VWS V14.01,2013-05-20 14:26:00,
2013-05-20 10:31:00,64.4,61.1,30.00,NW,313,0.0,1.0,89,0.00,,---,0.11,745.00,VWS V14.01,2013-05-20 14:31:00,
2013-05-20 10:36:00,65.2,61.6,30.01,NW,313,0.0,0.0,88,0.00,,---,0.11,598.00,VWS V14.01,2013-05-20 14:36:00,
2013-05-20 10:41:00,65.2,62.2,30.01,WSW,250,0.0,2.0,90,0.00,,---,0.11,531.00,VWS V14.01,2013-05-20 14:41:00,
2013-05-20 10:46:00,64.9,61.6,30.00,SSE,168,0.0,0.0,89,0.00,,---,0.11,360.00,VWS V14.01,2013-05-20 14:46:00,
2013-05-20 10:51:00,64.6,61.6,30.00,SSE,168,0.0,0.0,90,0.00,,---,0.11,441.00,VWS V14.01,2013-05-20 14:51:00,
2013-05-20 10:56:00,64.9,62.5,30.00,SSE,168,0.0,0.0,92,0.00,,---,0.11,450.00,VWS V14.01,2013-05-20 14:56:00,
2013-05-20 11:01:00,65.4,62.7,30.00,NW,315,4.0,4.0,91,0.00,,---,0.11,759.00,VWS V14.01,2013-05-20 15:01:00,
2013-05-20 11:06:00,65.7,62.4,30.00,NW,307,3.0,4.0,89,0.00,,---,0.11,761.00,VWS V14.01,2013-05-20 15:06:00,
2013-05-20 11:11:00,66.3,62.3,29.99,South,176,0.0,4.0,87,0.00,,---,0.11,464.00,VWS V14.01,2013-05-20 15:11:00,
2013-05-20 11:17:00,67.0,63.3,29.99,South,191,0.0,1.0,88,0.00,,---,0.11,643.00,VWS V14.01,2013-05-20 15:17:00,
2013-05-20 11:22:00,67.0,62.3,29.99,South,191,0.0,1.0,85,0.00,,---,0.11,450.00,VWS V14.01,2013-05-20 15:22:00,
2013-05-20 11:27:00,66.8,60.1,29.99,South,191,0.0,1.0,79,0.00,,---,0.11,519.00,VWS V14.01,2013-05-20 15:27:00,
2013-05-20 11:32:00,67.5,61.5,29.98,South,191,0.0,0.0,81,0.00,,---,0.11,318.00,VWS V14.01,2013-05-20 15:32:00,
2013-05-20 11:37:00,67.3,60.9,29.98,SSE,155,0.0,0.0,80,0.00,,---,0.11,438.00,VWS V14.01,2013-05-20 15:37:00,
2013-05-20 11:42:00,67.0,61.3,29.98,SW,218,0.0,3.0,82,0.00,,---,0.11,364.00,VWS V14.01,2013-05-20 15:42:00,
2013-05-20 11:47:00,66.8,60.8,29.97,SW,217,0.0,0.0,81,0.00,,---,0.11,329.00,VWS V14.01,2013-05-20 15:47:00,
2013-05-20 11:52:00,66.8,60.4,29.97,SW,217,0.0,1.0,80,0.00,,---,0.11,315.00,VWS V14.01,2013-05-20 15:52:00,
2013-05-20 11:57:00,67.3,61.3,29.97,SSW,200,0.0,3.0,81,0.00,,---,0.11,816.00,VWS V14.01,2013-05-20 15:57:00,
2013-05-20 12:02:00,68.0,62.3,29.97,SSW,199,0.0,0.0,82,0.00,,---,0.11,355.00,VWS V14.01,2013-05-20 16:02:00,
2013-05-20 12:07:00,68.2,61.8,29.97,SSW,199,0.0,0.0,80,0.00,,---,0.11,417.00,VWS V14.01,2013-05-20 16:07:00,
2013-05-20 12:12:00,68.0,63.0,29.97,SSW,199,0.0,0.0,84,0.00,,---,0.11,229.00,VWS V14.01,2013-05-20 16:12:00,
2013-05-20 12:17:00,67.2,62.9,29.97,SSW,199,0.0,0.0,86,0.00,,---,0.11,243.00,VWS V14.01,2013-05-20 16:17:00,
2013-05-20 12:22:00,66.7,62.4,29.97,SSW,195,0.0,0.0,86,0.00,,---,0.11,260.00,VWS V14.01,2013-05-20 16:22:00,
2013-05-20 12:27:00,66.7,62.0,29.97,NNW,333,0.0,2.0,85,0.00,,---,0.11,350.00,VWS V14.01,2013-05-20 16:27:00,
2013-05-20 12:32:00,66.8,62.2,29.97,NNW,332,1.0,1.0,85,0.00,,---,0.11,255.00,VWS V14.01,2013-05-20 16:32:00,
2013-05-20 12:37:00,67.3,62.0,29.96,NNW,338,0.0,1.0,83,0.00,,---,0.11,396.00,VWS V14.01,2013-05-20 16:37:00,
2013-05-20 12:42:00,67.5,61.8,29.97,NNW,338,0.0,1.0,82,0.00,,---,0.11,292.00,VWS V14.01,2013-05-20 16:42:00,
2013-05-20 12:47:00,67.3,63.3,29.97,NNW,338,0.0,0.0,87,0.00,,---,0.11,381.00,VWS V14.01,2013-05-20 16:47:00,
2013-05-20 12:52:00,68.0,62.3,29.96,NNW,338,0.0,0.0,82,0.00,,---,0.11,294.00,VWS V14.01,2013-05-20 16:52:00,
2013-05-20 12:57:00,68.2,61.8,29.96,ENE,72,0.0,0.0,80,0.00,,---,0.11,367.00,VWS V14.01,2013-05-20 16:57:00,
2013-05-20 13:02:00,68.5,63.1,29.96,ENE,72,0.0,0.0,83,0.00,,---,0.11,257.00,VWS V14.01,2013-05-20 17:02:00,
2013-05-20 13:07:00,68.2,63.2,29.96,ENE,72,0.0,0.0,84,0.00,,---,0.11,327.00,VWS V14.01,2013-05-20 17:07:00,
2013-05-20 13:12:00,68.7,61.9,29.96,ENE,72,0.0,0.0,79,0.00,,---,0.11,227.00,VWS V14.01,2013-05-20 17:12:00,
2013-05-20 13:17:00,68.8,63.4,29.95,ENE,73,0.0,0.0,83,0.00,,---,0.11,309.00,VWS V14.01,2013-05-20 17:17:00,
2013-05-20 13:22:00,69.0,62.9,29.95,ENE,72,0.0,0.0,81,0.00,,---,0.11,394.00,VWS V14.01,2013-05-20 17:22:00,
2013-05-20 13:27:00,68.8,62.4,29.95,ENE,65,0.0,0.0,80,0.00,,---,0.11,274.00,VWS V14.01,2013-05-20 17:27:00,
2013-05-20 13:32:00,68.5,61.4,29.96,ENE,65,0.0,0.0,78,0.00,,---,0.11,265.00,VWS V14.01,2013-05-20 17:32:00,
2013-05-20 13:37:00,68.5,62.5,29.95,ENE,65,0.0,0.0,81,0.00,,---,0.11,341.00,VWS V14.01,2013-05-20 17:37:00,
2013-05-20 13:42:00,68.7,63.0,29.95,ENE,69,0.0,0.0,82,0.00,,---,0.11,376.00,VWS V14.01,2013-05-20 17:42:00,
2013-05-20 13:47:00,68.8,62.7,29.96,NNE,27,0.0,0.0,81,0.00,,---,0.11,221.00,VWS V14.01,2013-05-20 17:47:00,
2013-05-20 13:52:00,68.8,62.7,29.96,ENE,57,0.0,1.0,81,0.00,,---,0.11,281.00,VWS V14.01,2013-05-20 17:52:00,
2013-05-20 13:57:00,69.0,62.6,29.96,NNW,338,0.0,2.0,80,0.00,,---,0.11,536.00,VWS V14.01,2013-05-20 17:57:00,
2013-05-20 14:02:00,69.8,64.1,29.96,NNE,24,0.0,1.0,82,0.00,,---,0.11,234.00,VWS V14.01,2013-05-20 18:02:00,
2013-05-20 14:07:00,69.5,62.7,29.96,NW,321,0.0,1.0,79,0.00,,---,0.11,169.00,VWS V14.01,2013-05-20 18:07:00,
2013-05-20 14:12:00,68.7,62.6,29.96,NW,311,0.0,2.0,81,0.00,,---,0.11,301.00,VWS V14.01,2013-05-20 18:12:00,
2013-05-20 14:17:00,68.8,62.4,29.96,North,5,0.0,0.0,80,0.00,,---,0.11,220.00,VWS V14.01,2013-05-20 18:17:00,
2013-05-20 14:22:00,68.5,63.5,29.96,NNW,331,0.0,0.0,84,0.00,,---,0.11,267.00,VWS V14.01,2013-05-20 18:22:00,
2013-05-20 14:27:00,68.7,63.0,29.96,North,5,0.0,3.0,82,0.00,,---,0.11,260.00,VWS V14.01,2013-05-20 18:27:00,
2013-05-20 14:32:00,69.2,63.1,29.96,NE,51,1.0,2.0,81,0.00,,---,0.11,278.00,VWS V14.01,2013-05-20 18:32:00,
2013-05-20 14:37:00,69.5,61.6,29.95,East,96,0.0,2.0,76,0.00,,---,0.11,202.00,VWS V14.01,2013-05-20 18:37:00,
2013-05-20 14:42:00,69.3,61.8,29.95,East,96,0.0,2.0,77,0.00,,---,0.11,176.00,VWS V14.01,2013-05-20 18:42:00,
2013-05-20 14:47:00,69.0,61.5,29.95,NNE,17,0.0,0.0,77,0.00,,---,0.11,155.00,VWS V14.01,2013-05-20 18:47:00,
2013-05-20 14:52:00,68.7,61.6,29.95,NNE,17,0.0,0.0,78,0.00,,---,0.11,118.00,VWS V14.01,2013-05-20 18:52:00,
2013-05-20 14:57:00,68.3,61.9,29.95,NNE,17,0.0,0.0,80,0.00,,---,0.11,104.00,VWS V14.01,2013-05-20 18:57:00,
2013-05-20 15:02:00,68.2,61.5,29.96,NNE,21,0.0,4.0,79,0.00,,---,0.11,76.00,VWS V14.01,2013-05-20 19:02:00,
2013-05-20 15:07:00,67.7,62.0,29.96,NE,55,2.0,4.0,82,0.00,,---,0.11,69.00,VWS V14.01,2013-05-20 19:07:00,
2013-05-20 15:12:00,67.3,61.6,29.96,NE,51,0.0,4.0,82,0.00,,---,0.11,90.00,VWS V14.01,2013-05-20 19:12:00,
2013-05-20 15:17:00,67.2,61.5,29.95,ENE,59,0.0,1.0,82,0.00,,---,0.11,86.00,VWS V14.01,2013-05-20 19:17:00,
2013-05-20 15:22:00,67.3,61.6,29.95,ENE,59,0.0,1.0,82,0.00,,---,0.11,142.00,VWS V14.01,2013-05-20 19:22:00,
2013-05-20 15:27:00,67.5,61.5,29.95,ENE,59,0.0,1.0,81,0.00,,---,0.11,153.00,VWS V14.01,2013-05-20 19:27:00,
2013-05-20 15:32:00,67.8,62.1,29.94,ENE,59,0.0,0.0,82,0.00,,---,0.11,193.00,VWS V14.01,2013-05-20 19:32:00,
2013-05-20 15:37:00,68.2,61.8,29.94,ENE,59,0.0,0.0,80,0.00,,---,0.11,232.00,VWS V14.01,2013-05-20 19:37:00,
2013-05-20 15:42:00,68.3,62.9,29.94,NE,55,0.0,1.0,83,0.00,,---,0.11,214.00,VWS V14.01,2013-05-20 19:42:00,
2013-05-20 15:47:00,68.3,62.9,29.94,NE,55,0.0,0.0,83,0.00,,---,0.11,260.00,VWS V14.01,2013-05-20 19:47:00,
2013-05-20 15:52:00,68.0,62.7,29.94,NE,55,0.0,0.0,83,0.00,,---,0.11,251.00,VWS V14.01,2013-05-20 19:52:00,
2013-05-20 15:57:00,67.8,62.8,29.94,NE,55,0.0,0.0,84,0.00,,---,0.11,253.00,VWS V14.01,2013-05-20 19:57:00,
2013-05-20 16:03:00,68.3,62.9,29.93,ESE,115,0.0,1.0,83,0.00,,---,0.11,448.00,VWS V14.01,2013-05-20 20:03:00,
2013-05-20 16:07:00,68.5,62.5,29.94,ESE,105,0.0,1.0,81,0.00,,---,0.11,281.00,VWS V14.01,2013-05-20 20:07:00,
2013-05-20 16:13:00,68.8,61.7,29.94,ENE,77,0.0,1.0,78,0.00,,---,0.11,339.00,VWS V14.01,2013-05-20 20:13:00,
2013-05-20 16:18:00,69.2,62.8,29.94,ENE,75,0.0,0.0,80,0.00,,---,0.11,308.00,VWS V14.01,2013-05-20 20:18:00,
2013-05-20 16:23:00,69.3,62.5,29.94,NW,311,0.0,0.0,79,0.00,,---,0.11,306.00,VWS V14.01,2013-05-20 20:23:00,
2013-05-20 16:28:00,69.5,62.7,29.94,NW,321,0.0,0.0,79,0.00,,---,0.11,311.00,VWS V14.01,2013-05-20 20:28:00,
2013-05-20 16:33:00,69.7,63.3,29.94,WNW,284,0.0,0.0,80,0.00,,---,0.11,316.00,VWS V14.01,2013-05-20 20:33:00,
2013-05-20 16:37:00,69.7,62.5,29.94,WNW,284,0.0,0.0,78,0.00,,---,0.11,276.00,VWS V14.01,2013-05-20 20:37:00,
2013-05-20 16:42:00,69.7,63.3,29.94,WNW,283,0.0,0.0,80,0.00,,---,0.11,192.00,VWS V14.01,2013-05-20 20:42:00,
2013-05-20 16:48:00,69.5,63.1,29.94,WNW,283,0.0,0.0,80,0.00,,---,0.11,141.00,VWS V14.01,2013-05-20 20:48:00,
2013-05-20 16:52:00,69.0,62.2,29.95,WNW,282,0.0,1.0,79,0.00,,---,0.11,130.00,VWS V14.01,2013-05-20 20:52:00,
2013-05-20 16:58:00,68.7,62.3,29.95,NW,306,0.0,1.0,80,0.00,,---,0.11,77.00,VWS V14.01,2013-05-20 20:58:00,
2013-05-20 17:03:00,68.3,62.6,29.95,NW,306,0.0,1.0,82,0.00,,---,0.11,93.00,VWS V14.01,2013-05-20 21:03:00,
2013-05-20 17:08:00,67.7,62.0,29.96,NW,306,0.0,1.0,82,0.00,,---,0.11,69.00,VWS V14.01,2013-05-20 21:08:00,
2013-05-20 17:13:00,67.2,62.2,29.96,NW,307,0.0,1.0,84,0.00,,---,0.11,67.00,VWS V14.01,2013-05-20 21:13:00,
2013-05-20 17:18:00,67.2,61.5,29.96,NW,312,0.0,0.0,82,0.00,,---,0.11,76.00,VWS V14.01,2013-05-20 21:18:00,
2013-05-20 17:23:00,67.2,61.9,29.96,WSW,251,0.0,1.0,83,0.00,,---,0.11,76.00,VWS V14.01,2013-05-20 21:23:00,
2013-05-20 17:28:00,67.0,62.3,29.96,WSW,251,0.0,1.0,85,0.00,,---,0.11,88.00,VWS V14.01,2013-05-20 21:28:00,
2013-05-20 17:33:00,67.0,62.3,29.97,NNW,334,0.0,0.0,85,0.00,,---,0.11,86.00,VWS V14.01,2013-05-20 21:33:00,
2013-05-20 17:38:00,66.8,61.8,29.96,NNW,334,0.0,0.0,84,0.00,,---,0.11,93.00,VWS V14.01,2013-05-20 21:38:00,
2013-05-20 17:43:00,66.8,62.2,29.96,NNW,334,0.0,1.0,85,0.00,,---,0.11,83.00,VWS V14.01,2013-05-20 21:43:00,
2013-05-20 17:48:00,66.5,62.2,29.96,NNW,334,0.0,1.0,86,0.00,,---,0.11,69.00,VWS V14.01,2013-05-20 21:48:00,
2013-05-20 17:53:00,66.3,62.0,29.96,NNW,335,0.0,1.0,86,0.00,,---,0.11,69.00,VWS V14.01,2013-05-20 21:53:00,
2013-05-20 17:58:00,66.3,62.3,29.96,NNW,335,0.0,1.0,87,0.00,,---,0.11,95.00,VWS V14.01,2013-05-20 21:58:00,
2013-05-20 18:03:00,66.2,61.9,29.95,NNW,335,0.0,0.0,86,0.00,,---,0.11,79.00,VWS V14.01,2013-05-20 22:03:00,
2013-05-20 18:08:00,66.5,62.2,29.96,NNW,334,0.0,0.0,86,0.00,,---,0.11,100.00,VWS V14.01,2013-05-20 22:08:00,
2013-05-20 18:13:00,66.3,62.0,29.96,NNW,334,0.0,1.0,86,0.00,,---,0.11,127.00,VWS V14.01,2013-05-20 22:13:00,
2013-05-20 18:18:00,66.3,62.3,29.95,NNW,334,0.0,0.0,87,0.00,,---,0.11,86.00,VWS V14.01,2013-05-20 22:18:00,
2013-05-20 18:23:00,66.3,62.0,29.95,NNW,334,0.0,0.0,86,0.00,,---,0.11,83.00,VWS V14.01,2013-05-20 22:23:00,
2013-05-20 18:28:00,66.2,61.9,29.95,NNW,335,0.0,0.0,86,0.00,,---,0.11,60.00,VWS V14.01,2013-05-20 22:28:00,
2013-05-20 18:33:00,66.0,61.7,29.94,NNW,334,0.0,0.0,86,0.00,,---,0.11,39.00,VWS V14.01,2013-05-20 22:33:00,
2013-05-20 18:38:00,66.0,61.7,29.94,NNW,334,0.0,0.0,86,0.00,,---,0.11,37.00,VWS V14.01,2013-05-20 22:38:00,
2013-05-20 18:43:00,65.7,61.4,29.95,NNW,334,0.0,0.0,86,0.00,,---,0.11,44.00,VWS V14.01,2013-05-20 22:43:00,
2013-05-20 18:48:00,65.7,61.4,29.94,NNW,334,0.0,0.0,86,0.00,,---,0.11,51.00,VWS V14.01,2013-05-20 22:48:00,
2013-05-20 18:53:00,66.0,61.0,29.94,NNW,334,0.0,0.0,84,0.00,,---,0.11,65.00,VWS V14.01,2013-05-20 22:53:00,
2013-05-20 18:58:00,66.2,60.9,29.94,NNW,334,0.0,0.0,83,0.00,,---,0.11,83.00,VWS V14.01,2013-05-20 22:58:00,
2013-05-20 19:03:00,66.3,61.0,29.95,NNW,334,0.0,0.0,83,0.00,,---,0.11,65.00,VWS V14.01,2013-05-20 23:03:00,
2013-05-20 19:08:00,66.5,61.2,29.95,NNW,334,0.0,0.0,83,0.00,,---,0.11,40.00,VWS V14.01,2013-05-20 23:08:00,
2013-05-20 19:13:00,66.5,60.8,29.96,NNW,334,0.0,0.0,82,0.00,,---,0.11,32.00,VWS V14.01,2013-05-20 23:13:00,
2013-05-20 19:18:00,66.5,61.2,29.96,NNW,336,0.0,0.0,83,0.00,,---,0.11,26.00,VWS V14.01,2013-05-20 23:18:00,
2013-05-20 19:23:00,66.3,61.0,29.96,NE,53,0.0,0.0,83,0.00,,---,0.11,28.00,VWS V14.01,2013-05-20 23:23:00,
2013-05-20 19:28:00,66.2,61.6,29.96,NE,52,0.0,0.0,85,0.00,,---,0.11,26.00,VWS V14.01,2013-05-20 23:28:00,
2013-05-20 19:33:00,65.9,61.6,29.96,NE,52,0.0,0.0,86,0.00,,---,0.11,19.00,VWS V14.01,2013-05-20 23:33:00,
2013-05-20 19:38:00,65.5,61.5,29.97,NE,51,0.0,0.0,87,0.00,,---,0.11,14.00,VWS V14.01,2013-05-20 23:38:00,
2013-05-20 19:43:00,65.4,61.4,29.97,NE,51,0.0,0.0,87,0.00,,---,0.11,7.00,VWS V14.01,2013-05-20 23:43:00,
2013-05-20 19:48:00,65.2,61.2,29.97,NE,51,0.0,0.0,87,0.00,,---,0.11,7.00,VWS V14.01,2013-05-20 23:48:00,
2013-05-20 19:53:00,65.4,61.1,29.97,NE,51,0.0,0.0,86,0.00,,---,0.11,5.00,VWS V14.01,2013-05-20 23:53:00,
2013-05-20 19:58:00,65.4,61.1,29.97,NE,51,0.0,0.0,86,0.00,,---,0.11,0.00,VWS V14.01,2013-05-20 23:58:00,
2013-05-20 20:03:00,65.2,60.9,29.97,NE,51,0.0,0.0,86,0.00,,---,0.11,0.00,VWS V14.01,2013-05-21 00:03:00,
2013-05-20 20:08:00,65.1,61.1,29.96,NE,51,0.0,0.0,87,0.00,,---,0.11,0.00,VWS V14.01,2013-05-21 00:08:00,
2013-05-20 20:13:00,64.9,60.9,29.96,NE,51,0.0,0.0,87,0.00,,---,0.11,0.00,VWS V14.01,2013-05-21 00:13:00,
2013-05-20 20:18:00,64.9,60.9,29.96,NE,51,0.0,0.0,87,0.00,,---,0.11,0.00,VWS V14.01,2013-05-21 00:18:00,
2013-05-20 20:23:00,64.6,61.0,29.96,NE,51,0.0,0.0,88,0.00,,---,0.11,0.00,VWS V14.01,2013-05-21 00:23:00,
2013-05-20 20:28:00,64.2,60.9,29.96,NE,51,0.0,0.0,89,0.00,,---,0.11,0.00,VWS V14.01,2013-05-21 00:28:00,
2013-05-20 20:33:00,63.8,60.5,29.96,NE,51,0.0,0.0,89,0.00,,---,0.11,0.00,VWS V14.01,2013-05-21 00:33:00,
2013-05-20 20:38:00,63.6,60.3,29.96,NE,51,0.0,0.0,89,0.00,,---,0.11,0.00,VWS V14.01,2013-05-21 00:38:00,
2013-05-20 20:43:00,63.4,60.1,29.96,NE,51,0.0,0.0,89,0.00,,---,0.11,0.00,VWS V14.01,2013-05-21 00:43:00,
2013-05-20 20:48:00,63.0,59.7,29.96,NE,51,0.0,0.0,89,0.00,,---,0.11,0.00,VWS V14.01,2013-05-21 00:48:00,
2013-05-20 20:53:00,62.8,59.8,29.96,NE,51,0.0,0.0,90,0.00,,---,0.11,0.00,VWS V14.01,2013-05-21 00:53:00,
2013-05-20 20:58:00,62.5,59.8,29.97,NE,51,0.0,0.0,91,0.00,,---,0.11,0.00,VWS V14.01,2013-05-21 00:58:00,
2013-05-20 21:03:00,62.2,59.5,29.97,NE,51,0.0,0.0,91,0.00,,---,0.11,0.00,VWS V14.01,2013-05-21 01:03:00,
2013-05-20 21:08:00,61.9,59.2,29.97,NE,51,0.0,0.0,91,0.00,,---,0.11,0.00,VWS V14.01,2013-05-21 01:08:00,
2013-05-20 21:13:00,61.5,59.2,29.97,NE,51,0.0,0.0,92,0.00,,---,0.11,0.00,VWS V14.01,2013-05-21 01:13:00,
2013-05-20 21:18:00,61.2,58.9,29.97,NE,51,0.0,0.0,92,0.00,,---,0.11,0.00,VWS V14.01,2013-05-21 01:18:00,
2013-05-20 21:23:00,61.1,59.1,29.97,NE,51,0.0,0.0,93,0.00,,---,0.11,0.00,VWS V14.01,2013-05-21 01:23:00,
2013-05-20 21:28:00,60.9,58.9,29.97,NE,51,0.0,0.0,93,0.00,,---,0.11,0.00,VWS V14.01,2013-05-21 01:28:00,
2013-05-20 21:33:00,60.6,58.6,29.97,NE,51,0.0,0.0,93,0.00,,---,0.11,0.00,VWS V14.01,2013-05-21 01:33:00,
2013-05-20 21:38:00,60.4,58.7,29.97,NE,51,0.0,0.0,94,0.00,,---,0.11,0.00,VWS V14.01,2013-05-21 01:38:00,
2013-05-20 21:43:00,60.3,58.6,29.97,NE,51,0.0,0.0,94,0.00,,---,0.11,0.00,VWS V14.01,2013-05-21 01:43:00,
2013-05-20 21:48:00,60.1,58.4,29.97,NE,51,0.0,0.0,94,0.00,,---,0.11,0.00,VWS V14.01,2013-05-21 01:48:00,
2013-05-20 21:53:00,59.8,58.4,29.97,NE,51,0.0,0.0,95,0.00,,---,0.11,0.00,VWS V14.01,2013-05-21 01:53:00,
2013-05-20 21:58:00,59.7,58.3,29.97,NE,51,0.0,0.0,95,0.00,,---,0.11,0.00,VWS V14.01,2013-05-21 01:58:00,
2013-05-20 22:03:00,59.7,58.6,29.97,NE,51,0.0,0.0,96,0.00,,---,0.11,0.00,VWS V14.01,2013-05-21 02:03:00,
2013-05-20 22:09:00,59.5,58.4,29.97,NE,51,0.0,0.0,96,0.00,,---,0.11,0.00,VWS V14.01,2013-05-21 02:09:00,
2013-05-20 22:14:00,59.5,58.4,29.97,NE,51,0.0,0.0,96,0.00,,---,0.11,0.00,VWS V14.01,2013-05-21 02:14:00,
2013-05-20 22:19:00,59.2,58.1,29.97,NE,51,0.0,0.0,96,0.00,,---,0.11,0.00,VWS V14.01,2013-05-21 02:19:00,
2013-05-20 22:24:00,59.1,58.0,29.97,NE,51,0.0,0.0,96,0.00,,---,0.11,0.00,VWS V14.01,2013-05-21 02:24:00,
2013-05-20 22:29:00,59.1,58.0,29.97,NE,51,0.0,0.0,96,0.00,,---,0.11,0.00,VWS V14.01,2013-05-21 02:29:00,
2013-05-20 22:34:00,59.1,58.0,29.97,NE,51,0.0,0.0,96,0.00,,---,0.11,0.00,VWS V14.01,2013-05-21 02:34:00,
2013-05-20 22:39:00,59.1,58.0,29.97,NE,51,0.0,0.0,96,0.00,,---,0.11,0.00,VWS V14.01,2013-05-21 02:39:00,
2013-05-20 22:44:00,59.1,58.2,29.97,NE,51,0.0,0.0,97,0.00,,---,0.11,0.00,VWS V14.01,2013-05-21 02:44:00,
2013-05-20 22:49:00,58.9,58.0,29.97,NE,51,0.0,0.0,97,0.00,,---,0.11,0.00,VWS V14.01,2013-05-21 02:49:00,
2013-05-20 22:54:00,58.8,58.0,29.97,NE,51,0.0,0.0,97,0.00,,---,0.11,0.00,VWS V14.01,2013-05-21 02:54:00,
2013-05-20 22:59:00,58.8,58.0,29.97,NE,51,0.0,0.0,97,0.00,,---,0.11,0.00,VWS V14.01,2013-05-21 02:59:00,
2013-05-20 23:04:00,58.6,57.8,29.98,NE,51,0.0,0.0,97,0.00,,---,0.11,0.00,VWS V14.01,2013-05-21 03:04:00,
2013-05-20 23:09:00,58.5,57.7,29.97,NE,51,0.0,0.0,97,0.00,,---,0.11,0.00,VWS V14.01,2013-05-21 03:09:00,
2013-05-20 23:14:00,58.3,57.5,29.98,NE,51,0.0,0.0,97,0.00,,---,0.11,0.00,VWS V14.01,2013-05-21 03:14:00,
2013-05-20 23:19:00,58.2,57.4,29.98,NE,51,0.0,0.0,97,0.00,,---,0.11,0.00,VWS V14.01,2013-05-21 03:19:00,
2013-05-20 23:24:00,58.2,57.6,29.98,NE,51,0.0,0.0,98,0.00,,---,0.11,0.00,VWS V14.01,2013-05-21 03:24:00,
2013-05-20 23:29:00,58.0,57.4,29.98,NE,51,0.0,0.0,98,0.00,,---,0.11,0.00,VWS V14.01,2013-05-21 03:29:00,
2013-05-20 23:34:00,57.9,57.3,29.98,NE,51,0.0,0.0,98,0.00,,---,0.11,0.00,VWS V14.01,2013-05-21 03:34:00,
2013-05-20 23:39:00,57.9,57.3,29.98,NE,51,0.0,0.0,98,0.00,,---,0.11,0.00,VWS V14.01,2013-05-21 03:39:00,
2013-05-20 23:44:00,57.9,57.3,29.97,NE,51,0.0,0.0,98,0.00,,---,0.11,0.00,VWS V14.01,2013-05-21 03:44:00,
2013-05-20 23:49:00,57.9,57.3,29.97,NE,51,0.0,0.0,98,0.00,,---,0.11,0.00,VWS V14.01,2013-05-21 03:49:00,
2013-05-20 23:54:00,58.0,57.4,29.97,NE,51,0.0,0.0,98,0.00,,---,0.11,0.00,VWS V14.01,2013-05-21 03:54:00,
2013-05-20 23:59:00,58.0,57.4,29.97,NE,51,0.0,0.0,98,0.00,,---,0.11,0.00,VWS V14.01,2013-05-21 03:59:00,